createdAt,value
2022-11-20T00:01:15.186Z,-4.23
2022-11-20T00:03:43.510Z,-4.23
2022-11-20T00:06:13.590Z,-4.24
2022-11-20T00:08:41.643Z,-4.31
2022-11-20T00:11:15.487Z,-4.33
2022-11-20T00:13:44.235Z,-4.38
2022-11-20T00:16:13.191Z,-4.37
2022-11-20T00:18:43.155Z,-4.39
2022-11-20T00:21:13.907Z,-4.47
2022-11-20T00:23:42.386Z,-4.50
2022-11-20T00:26:11.819Z,-4.50
2022-11-20T00:28:39.737Z,-4.49
2022-11-20T00:31:08.847Z,-4.47
2022-11-20T00:33:36.861Z,-4.46
2022-11-20T00:36:05.796Z,-4.53
2022-11-20T00:38:35.906Z,-4.46
2022-11-20T00:41:04.915Z,-4.34
2022-11-20T00:43:32.867Z,-4.42
2022-11-20T00:46:00.854Z,-4.47
2022-11-20T00:48:29.112Z,-4.38
2022-11-20T00:50:57.795Z,-4.49
2022-11-20T00:53:25.849Z,-4.55
2022-11-20T00:55:59.053Z,-4.58
2022-11-20T00:58:27.501Z,-4.66
2022-11-20T01:00:55.502Z,-4.69
2022-11-20T01:03:27.058Z,-4.61
2022-11-20T01:05:55.148Z,-4.66
2022-11-20T01:08:23.008Z,-4.65
2022-11-20T01:10:50.987Z,-4.59
2022-11-20T01:13:37.705Z,-4.48
2022-11-20T01:16:06.163Z,-4.53
2022-11-20T01:18:34.351Z,-4.57
2022-11-20T01:21:03.399Z,-4.56
2022-11-20T01:23:35.021Z,-4.69
2022-11-20T01:26:03.595Z,-4.68
2022-11-20T01:28:32.863Z,-4.69
2022-11-20T01:31:00.868Z,-4.72
2022-11-20T01:33:29.121Z,-4.70
2022-11-20T01:36:05.181Z,-4.66
2022-11-20T01:38:33.195Z,-4.74
2022-11-20T01:41:01.321Z,-4.70
2022-11-20T01:43:29.443Z,-4.67
2022-11-20T01:46:03.274Z,-4.70
2022-11-20T01:48:34.141Z,-4.51
2022-11-20T01:51:02.884Z,-4.62
2022-11-20T01:53:33.195Z,-4.51
2022-11-20T01:56:02.310Z,-4.62
2022-11-20T01:58:31.991Z,-4.66
2022-11-20T02:00:59.855Z,-4.68
2022-11-20T02:03:29.628Z,-4.65
2022-11-20T02:05:59.629Z,-4.70
2022-11-20T02:08:27.576Z,-4.77
2022-11-20T02:10:55.590Z,-4.71
2022-11-20T02:13:41.177Z,-4.78
2022-11-20T02:16:10.735Z,-4.76
2022-11-20T02:18:40.366Z,-4.76
2022-11-20T02:21:09.216Z,-4.74
2022-11-20T02:23:40.331Z,-4.80
2022-11-20T02:26:13.578Z,-4.74
2022-11-20T02:28:41.661Z,-4.79
2022-11-20T02:31:09.672Z,-4.86
2022-11-20T02:33:38.137Z,-4.96
2022-11-20T02:36:10.445Z,-4.93
2022-11-20T02:38:38.269Z,-4.85
2022-11-20T02:41:06.311Z,-4.85
2022-11-20T02:43:35.473Z,-4.83
2022-11-20T02:46:03.349Z,-4.83
2022-11-20T02:48:33.781Z,-4.81
2022-11-20T02:51:02.294Z,-4.79
2022-11-20T02:53:30.129Z,-4.80
2022-11-20T02:55:57.995Z,-4.87
2022-11-20T02:58:25.886Z,-4.86
2022-11-20T03:00:55.359Z,-4.84
2022-11-20T03:03:23.388Z,-4.68
2022-11-20T03:05:51.275Z,-4.80
2022-11-20T03:08:19.129Z,-4.89
2022-11-20T03:10:47.065Z,-4.88
2022-11-20T03:13:14.919Z,-4.93
2022-11-20T03:15:42.999Z,-4.93
2022-11-20T03:18:12.164Z,-5.00
2022-11-20T03:20:39.957Z,-4.93
2022-11-20T03:23:07.833Z,-4.92
2022-11-20T03:25:36.444Z,-4.92
2022-11-20T03:28:04.512Z,-4.96
2022-11-20T03:30:33.423Z,-4.99
2022-11-20T03:33:01.324Z,-4.94
2022-11-20T03:35:30.588Z,-4.96
2022-11-20T03:37:59.189Z,-4.95
2022-11-20T03:40:27.234Z,-4.90
2022-11-20T03:42:55.073Z,-4.90
2022-11-20T03:45:23.002Z,-4.98
2022-11-20T03:47:50.960Z,-4.99
2022-11-20T03:50:18.921Z,-4.95
2022-11-20T03:52:48.285Z,-5.03
2022-11-20T03:55:16.270Z,-5.03
2022-11-20T03:57:44.120Z,-5.12
2022-11-20T04:00:12.718Z,-5.13
2022-11-20T04:02:40.582Z,-5.11
2022-11-20T04:05:08.792Z,-5.13
2022-11-20T04:07:37.231Z,-5.19
2022-11-20T04:10:07.084Z,-5.19
2022-11-20T04:12:35.439Z,-5.07
2022-11-20T04:15:03.260Z,-5.18
2022-11-20T04:17:31.793Z,-5.16
2022-11-20T04:19:59.666Z,-5.21
2022-11-20T04:22:27.567Z,-5.20
2022-11-20T04:24:55.478Z,-5.15
2022-11-20T04:27:24.662Z,-5.20
2022-11-20T04:29:52.635Z,-5.14
2022-11-20T04:32:20.495Z,-5.14
2022-11-20T04:34:49.777Z,-5.14
2022-11-20T04:37:17.647Z,-5.10
2022-11-20T04:39:45.657Z,-5.10
2022-11-20T04:42:32.070Z,-4.99
2022-11-20T04:45:01.404Z,-4.80
2022-11-20T04:47:29.458Z,-4.69
2022-11-20T04:49:57.439Z,-4.63
2022-11-20T04:52:25.406Z,-4.55
2022-11-20T04:54:54.301Z,-4.41
2022-11-20T04:57:22.317Z,-4.28
2022-11-20T04:59:50.144Z,-4.21
2022-11-20T05:02:19.572Z,-3.95
2022-11-20T05:04:47.462Z,-3.83
2022-11-20T05:07:15.594Z,-3.84
2022-11-20T05:09:43.717Z,-3.75
2022-11-20T05:12:11.908Z,-3.66
2022-11-20T05:14:39.741Z,-3.54
2022-11-20T05:17:07.730Z,-3.42
2022-11-20T05:19:37.207Z,-3.35
2022-11-20T05:22:06.186Z,-3.30
2022-11-20T05:24:34.048Z,-3.23
2022-11-20T05:27:01.940Z,-3.18
2022-11-20T05:29:29.825Z,-3.08
2022-11-20T05:31:57.802Z,-2.99
2022-11-20T05:34:25.691Z,-2.98
2022-11-20T05:36:54.936Z,-2.94
2022-11-20T05:39:23.254Z,-2.83
2022-11-20T05:42:11.517Z,-2.82
2022-11-20T05:44:39.585Z,-2.77
2022-11-20T05:47:07.920Z,-2.73
2022-11-20T05:49:35.754Z,-2.76
2022-11-20T05:52:05.104Z,-2.76
2022-11-20T05:54:33.104Z,-2.79
2022-11-20T05:57:01.224Z,-2.82
2022-11-20T05:59:29.181Z,-2.81
2022-11-20T06:01:57.065Z,-2.85
2022-11-20T06:04:25.008Z,-2.95
2022-11-20T06:06:52.865Z,-3.14
2022-11-20T06:09:22.442Z,-3.27
2022-11-20T06:11:50.477Z,-3.34
2022-11-20T06:14:18.360Z,-3.40
2022-11-20T06:16:46.345Z,-3.47
2022-11-20T06:19:14.513Z,-3.54
2022-11-20T06:21:42.545Z,-3.58
2022-11-20T06:24:11.280Z,-3.59
2022-11-20T06:26:40.497Z,-3.50
2022-11-20T06:29:08.475Z,-3.45
2022-11-20T06:31:38.635Z,-3.38
2022-11-20T06:34:07.057Z,-3.38
2022-11-20T06:36:35.016Z,-3.40
2022-11-20T06:39:02.922Z,-3.51
2022-11-20T06:41:30.881Z,-3.63
2022-11-20T06:44:00.112Z,-3.74
2022-11-20T06:46:28.227Z,-3.87
2022-11-20T06:48:56.069Z,-3.92
2022-11-20T06:51:23.960Z,-3.94
2022-11-20T06:53:51.779Z,-3.89
2022-11-20T06:56:19.639Z,-4.01
2022-11-20T06:58:47.698Z,-4.04
2022-11-20T07:01:17.635Z,-3.95
2022-11-20T07:03:47.995Z,-3.88
2022-11-20T07:06:19.433Z,-3.96
2022-11-20T07:08:47.911Z,-3.96
2022-11-20T07:11:15.845Z,-3.97
2022-11-20T07:13:43.861Z,-4.00
2022-11-20T07:16:12.478Z,-3.98
2022-11-20T07:18:45.953Z,-3.95
2022-11-20T07:21:17.035Z,-3.63
2022-11-20T07:23:44.871Z,-3.35
2022-11-20T07:26:12.997Z,-3.31
2022-11-20T07:28:40.864Z,-3.13
2022-11-20T07:31:08.839Z,-2.94
2022-11-20T07:33:36.862Z,-2.94
2022-11-20T07:36:06.658Z,-2.94
2022-11-20T07:38:34.534Z,-2.60
2022-11-20T07:41:02.847Z,-2.05
2022-11-20T07:43:30.834Z,-1.64
2022-11-20T07:45:58.805Z,-0.72
2022-11-20T07:48:26.953Z,0.25
2022-11-20T07:50:55.504Z,1.88
2022-11-20T07:53:25.040Z,3.11
2022-11-20T07:55:53.753Z,4.50
2022-11-20T07:58:22.021Z,5.79
2022-11-20T08:00:49.950Z,6.77
2022-11-20T08:03:24.102Z,7.53
2022-11-20T08:05:53.299Z,8.07
2022-11-20T08:08:21.407Z,8.39
2022-11-20T08:10:50.596Z,8.91
2022-11-20T08:13:35.986Z,9.55
2022-11-20T08:16:03.992Z,10.41
2022-11-20T08:18:32.975Z,11.36
2022-11-20T08:21:03.411Z,11.93
2022-11-20T08:23:31.380Z,12.10
2022-11-20T08:26:00.777Z,12.04
2022-11-20T08:28:28.996Z,12.60
2022-11-20T08:30:59.477Z,13.32
2022-11-20T08:33:27.394Z,14.37
2022-11-20T08:35:55.320Z,14.89
2022-11-20T08:38:23.265Z,15.18
2022-11-20T08:41:05.179Z,14.95
2022-11-20T08:43:34.667Z,15.22
2022-11-20T08:46:02.553Z,15.84
2022-11-20T08:48:30.454Z,16.75
2022-11-20T08:50:59.755Z,17.70
2022-11-20T08:53:27.623Z,17.61
2022-11-20T08:55:55.791Z,17.12
2022-11-20T08:58:23.804Z,17.12
2022-11-20T09:00:53.108Z,16.63
2022-11-20T09:03:21.048Z,17.79
2022-11-20T09:05:49.002Z,17.28
2022-11-20T09:08:17.017Z,18.46
2022-11-20T09:10:44.868Z,19.00
2022-11-20T09:13:12.825Z,19.32
2022-11-20T09:15:40.698Z,18.46
2022-11-20T09:18:09.903Z,13.82
2022-11-20T09:20:38.120Z,13.50
2022-11-20T09:23:06.016Z,14.79
2022-11-20T09:25:34.010Z,15.81
2022-11-20T09:28:01.947Z,18.10
2022-11-20T09:30:29.862Z,20.01
2022-11-20T09:32:57.787Z,21.12
2022-11-20T09:35:27.031Z,22.12
2022-11-20T09:37:54.920Z,22.39
2022-11-20T09:40:24.106Z,23.10
2022-11-20T09:42:56.152Z,22.81
2022-11-20T09:45:26.638Z,22.81
2022-11-20T09:48:06.937Z,23.02
2022-11-20T09:50:38.805Z,22.66
2022-11-20T09:53:13.048Z,21.96
2022-11-20T09:55:41.632Z,21.34
2022-11-20T09:58:16.227Z,20.27
2022-11-20T10:00:44.402Z,17.81
2022-11-20T10:03:15.823Z,15.16
2022-11-20T10:05:47.029Z,12.66
2022-11-20T10:08:18.656Z,11.42
2022-11-20T10:10:52.492Z,11.71
2022-11-20T10:13:32.138Z,11.17
2022-11-20T10:16:05.599Z,10.84
2022-11-20T10:18:41.562Z,14.17
2022-11-20T10:21:15.554Z,14.80
2022-11-20T10:23:56.700Z,15.47
2022-11-20T10:26:28.508Z,13.89
2022-11-20T10:29:04.703Z,12.07
2022-11-20T10:31:37.023Z,11.89
2022-11-20T10:34:12.473Z,12.18
2022-11-20T10:36:46.070Z,11.22
2022-11-20T10:39:18.930Z,8.75
2022-11-20T10:41:50.897Z,7.17
2022-11-20T10:44:39.863Z,6.81
2022-11-20T10:47:14.064Z,5.74
2022-11-20T10:49:43.458Z,5.40
2022-11-20T10:52:15.520Z,5.07
2022-11-20T10:54:48.614Z,4.98
2022-11-20T10:57:22.549Z,5.15
2022-11-20T11:00:07.489Z,4.92
2022-11-20T11:02:37.205Z,5.40
2022-11-20T11:05:14.511Z,5.46
2022-11-20T11:07:44.312Z,5.03
2022-11-20T11:10:16.052Z,5.29
2022-11-20T11:12:45.766Z,5.23
2022-11-20T11:15:16.335Z,5.15
2022-11-20T11:17:48.659Z,5.03
2022-11-20T11:20:18.173Z,4.70
2022-11-20T11:22:48.607Z,4.55
2022-11-20T11:25:37.292Z,4.82
2022-11-20T11:28:06.199Z,5.12
2022-11-20T11:30:43.108Z,5.40
2022-11-20T11:33:12.778Z,5.30
2022-11-20T11:35:49.961Z,4.91
2022-11-20T11:38:23.349Z,4.87
2022-11-20T11:40:51.555Z,4.96
2022-11-20T11:43:36.877Z,5.00
2022-11-20T11:46:08.181Z,5.08
2022-11-20T11:48:36.186Z,5.01
2022-11-20T11:51:04.198Z,4.80
2022-11-20T11:53:44.068Z,4.62
2022-11-20T11:56:13.583Z,4.63
2022-11-20T11:58:45.368Z,5.17
2022-11-20T12:01:22.806Z,5.88
2022-11-20T12:03:57.459Z,6.20
2022-11-20T12:06:27.177Z,6.43
2022-11-20T12:08:59.814Z,5.92
2022-11-20T12:11:33.281Z,5.82
2022-11-20T12:14:05.661Z,5.53
2022-11-20T12:16:37.375Z,5.24
2022-11-20T12:19:09.980Z,4.78
2022-11-20T12:21:42.056Z,4.89
2022-11-20T12:24:41.708Z,4.84
2022-11-20T12:27:23.393Z,5.11
2022-11-20T12:29:57.679Z,5.31
2022-11-20T12:32:36.804Z,5.39
2022-11-20T12:35:12.209Z,4.92
2022-11-20T12:37:47.259Z,4.76
2022-11-20T12:40:25.192Z,4.72
2022-11-20T12:43:17.848Z,4.35
2022-11-20T12:46:08.149Z,4.19
2022-11-20T12:48:46.404Z,4.11
2022-11-20T12:51:33.840Z,4.07
2022-11-20T12:54:11.155Z,3.56
2022-11-20T12:56:45.816Z,3.46
2022-11-20T12:59:23.064Z,3.49
2022-11-20T13:02:06.521Z,3.52
2022-11-20T13:04:42.742Z,3.54
2022-11-20T13:07:13.612Z,3.34
2022-11-20T13:09:47.388Z,3.19
2022-11-20T13:12:20.330Z,3.31
2022-11-20T13:14:54.815Z,3.32
2022-11-20T13:17:26.874Z,3.24
2022-11-20T13:19:55.979Z,3.15
2022-11-20T13:22:27.659Z,3.20
2022-11-20T13:24:55.786Z,3.22
2022-11-20T13:27:25.486Z,3.15
2022-11-20T13:30:04.622Z,3.24
2022-11-20T13:32:33.315Z,3.21
2022-11-20T13:35:02.665Z,3.17
2022-11-20T13:37:32.049Z,3.37
2022-11-20T13:40:18.945Z,3.25
2022-11-20T13:42:56.388Z,3.26
2022-11-20T13:45:27.171Z,3.22
2022-11-20T13:47:55.755Z,3.19
2022-11-20T13:50:31.236Z,3.17
2022-11-20T13:53:05.371Z,3.14
2022-11-20T13:55:38.617Z,3.06
2022-11-20T13:58:29.440Z,3.14
2022-11-20T14:01:01.223Z,3.07
2022-11-20T14:03:58.997Z,3.15
2022-11-20T14:06:25.366Z,3.22
2022-11-20T14:08:53.662Z,3.17
2022-11-20T14:11:22.609Z,3.16
2022-11-20T14:13:59.667Z,3.24
2022-11-20T14:16:29.662Z,3.24
2022-11-20T14:18:59.841Z,3.26
2022-11-20T14:21:29.199Z,3.14
2022-11-20T14:24:05.249Z,3.01
2022-11-20T14:26:33.660Z,2.90
2022-11-20T14:29:03.539Z,2.82
2022-11-20T14:31:31.896Z,2.79
2022-11-20T14:34:00.755Z,2.81
2022-11-20T14:36:29.519Z,2.80
2022-11-20T14:38:57.722Z,2.74
2022-11-20T14:41:40.228Z,2.74
2022-11-20T14:44:11.966Z,2.78
2022-11-20T14:46:40.803Z,2.58
2022-11-20T14:49:12.295Z,2.53
2022-11-20T14:51:43.143Z,2.44
2022-11-20T14:54:16.251Z,2.42
2022-11-20T14:56:55.067Z,2.36
2022-11-20T14:59:26.263Z,2.42
2022-11-20T15:01:58.747Z,2.45
2022-11-20T15:04:27.032Z,2.46
2022-11-20T15:06:56.486Z,2.30
2022-11-20T15:09:24.732Z,2.16
2022-11-20T15:11:55.519Z,2.18
2022-11-20T15:14:23.791Z,2.21
2022-11-20T15:16:54.203Z,2.11
2022-11-20T15:19:23.292Z,2.24
2022-11-20T15:21:51.488Z,2.18
2022-11-20T15:24:20.167Z,2.25
2022-11-20T15:26:48.654Z,2.24
2022-11-20T15:29:19.598Z,2.30
2022-11-20T15:31:47.476Z,2.35
2022-11-20T15:34:17.540Z,2.31
2022-11-20T15:36:45.528Z,2.30
2022-11-20T15:39:13.457Z,2.31
2022-11-20T15:41:41.527Z,2.36
2022-11-20T15:44:09.497Z,2.36
2022-11-20T15:46:39.214Z,2.27
2022-11-20T15:49:07.597Z,2.30
2022-11-20T15:51:37.829Z,2.11
2022-11-20T15:54:12.174Z,2.03
2022-11-20T15:56:40.529Z,2.03
2022-11-20T15:59:08.646Z,2.04
2022-11-20T16:01:37.443Z,2.01
2022-11-20T16:04:07.058Z,1.91
2022-11-20T16:06:34.960Z,2.00
2022-11-20T16:09:04.812Z,1.92
2022-11-20T16:11:32.929Z,1.83
2022-11-20T16:14:18.442Z,1.88
2022-11-20T16:16:46.495Z,1.85
2022-11-20T16:19:26.685Z,1.87
2022-11-20T16:21:59.676Z,1.85
2022-11-20T16:24:31.983Z,1.86
2022-11-20T16:26:59.872Z,1.88
2022-11-20T16:29:27.818Z,1.86
2022-11-20T16:31:55.956Z,1.90
2022-11-20T16:34:25.299Z,1.97
2022-11-20T16:36:53.693Z,1.87
2022-11-20T16:39:23.827Z,1.90
2022-11-20T16:41:53.434Z,1.93
2022-11-20T16:44:22.299Z,1.88
2022-11-20T16:46:50.721Z,1.83
2022-11-20T16:49:18.748Z,1.80
2022-11-20T16:51:46.892Z,1.84
2022-11-20T16:54:19.429Z,1.75
2022-11-20T16:56:50.893Z,1.78
2022-11-20T16:59:20.229Z,1.79
2022-11-20T17:01:48.239Z,1.75
2022-11-20T17:04:16.574Z,1.83
2022-11-20T17:06:45.177Z,1.81
2022-11-20T17:09:13.914Z,1.79
2022-11-20T17:11:41.868Z,1.80
2022-11-20T17:14:11.306Z,1.78
2022-11-20T17:16:40.583Z,1.81
2022-11-20T17:19:08.913Z,1.81
2022-11-20T17:21:37.281Z,1.74
2022-11-20T17:24:06.081Z,1.80
2022-11-20T17:26:34.157Z,1.76
2022-11-20T17:29:03.257Z,1.79
2022-11-20T17:31:32.476Z,1.81
2022-11-20T17:34:02.365Z,1.79
2022-11-20T17:36:30.703Z,1.74
2022-11-20T17:38:58.871Z,1.79
2022-11-20T17:41:27.693Z,1.71
2022-11-20T17:43:56.102Z,1.76
2022-11-20T17:46:25.263Z,1.73
2022-11-20T17:48:53.610Z,1.69
2022-11-20T17:51:24.505Z,1.71
2022-11-20T17:53:53.374Z,1.80
2022-11-20T17:56:38.847Z,1.77
2022-11-20T17:59:07.684Z,1.79
2022-11-20T18:01:36.039Z,1.76
2022-11-20T18:04:04.393Z,1.73
2022-11-20T18:06:33.898Z,1.75
2022-11-20T18:09:02.923Z,1.76
2022-11-20T18:11:33.599Z,1.74
2022-11-20T18:14:19.620Z,1.80
2022-11-20T18:16:48.857Z,1.80
2022-11-20T18:19:18.302Z,1.84
2022-11-20T18:21:47.666Z,1.84
2022-11-20T18:24:16.060Z,1.84
2022-11-20T18:26:44.668Z,1.83
2022-11-20T18:29:13.107Z,1.86
2022-11-20T18:31:41.384Z,1.84
2022-11-20T18:34:12.137Z,1.93
2022-11-20T18:36:40.188Z,1.93
2022-11-20T18:39:11.225Z,1.90
2022-11-20T18:41:56.800Z,1.92
2022-11-20T18:44:43.828Z,1.92
2022-11-20T18:47:14.882Z,2.02
2022-11-20T18:49:44.141Z,1.94
2022-11-20T18:52:12.493Z,1.94
2022-11-20T18:54:41.979Z,2.03
2022-11-20T18:57:14.689Z,2.06
2022-11-20T18:59:43.981Z,2.07
2022-11-20T19:02:13.292Z,2.14
2022-11-20T19:04:41.806Z,2.09
2022-11-20T19:07:12.021Z,2.15
2022-11-20T19:09:40.462Z,2.18
2022-11-20T19:12:11.020Z,2.21
2022-11-20T19:14:39.593Z,2.28
2022-11-20T19:17:08.794Z,2.41
2022-11-20T19:19:37.346Z,2.41
2022-11-20T19:22:06.165Z,2.44
2022-11-20T19:24:34.746Z,2.53
2022-11-20T19:27:02.951Z,2.49
2022-11-20T19:29:32.294Z,2.46
2022-11-20T19:32:00.341Z,2.43
2022-11-20T19:34:28.295Z,2.42
2022-11-20T19:36:56.443Z,2.46
2022-11-20T19:39:24.832Z,2.42
2022-11-20T19:41:52.884Z,2.43
2022-11-20T19:44:20.926Z,2.57
2022-11-20T19:46:58.645Z,2.47
2022-11-20T19:49:26.847Z,2.52
2022-11-20T19:51:54.982Z,2.54
2022-11-20T19:54:23.054Z,2.60
2022-11-20T19:56:51.065Z,2.57
2022-11-20T19:59:19.266Z,2.55
2022-11-20T20:01:47.322Z,2.60
2022-11-20T20:04:16.579Z,2.61
2022-11-20T20:06:44.500Z,2.51
2022-11-20T20:09:13.948Z,2.54
2022-11-20T20:11:46.050Z,2.61
2022-11-20T20:14:15.099Z,2.58
2022-11-20T20:16:43.577Z,2.55
2022-11-20T20:19:13.265Z,2.56
2022-11-20T20:21:42.798Z,2.55
2022-11-20T20:24:11.424Z,2.54
2022-11-20T20:26:39.703Z,2.57
2022-11-20T20:29:09.794Z,2.64
2022-11-20T20:31:38.221Z,2.78
2022-11-20T20:34:06.700Z,2.78
2022-11-20T20:36:34.969Z,2.89
2022-11-20T20:39:04.672Z,2.85
2022-11-20T20:41:32.883Z,2.78
2022-11-20T20:44:19.812Z,2.77
2022-11-20T20:46:48.037Z,2.76
2022-11-20T20:49:16.234Z,2.83
2022-11-20T20:51:44.506Z,2.92
2022-11-20T20:54:13.888Z,2.92
2022-11-20T20:56:41.758Z,3.00
2022-11-20T20:59:09.806Z,2.96
2022-11-20T21:01:37.819Z,2.85
2022-11-20T21:04:05.859Z,2.90
2022-11-20T21:06:33.752Z,2.86
2022-11-20T21:09:01.559Z,2.81
2022-11-20T21:11:31.025Z,2.87
2022-11-20T21:13:58.904Z,2.86
2022-11-20T21:16:29.404Z,2.89
2022-11-20T21:18:57.433Z,2.85
2022-11-20T21:21:54.422Z,2.90
2022-11-20T21:24:23.270Z,2.82
2022-11-20T21:26:53.258Z,2.82
2022-11-20T21:29:21.300Z,2.74
2022-11-20T21:31:49.319Z,2.73
2022-11-20T21:34:18.487Z,2.61
2022-11-20T21:36:46.611Z,2.53
2022-11-20T21:39:15.841Z,2.52
2022-11-20T21:41:44.244Z,2.56
2022-11-20T21:44:31.660Z,2.64
2022-11-20T21:47:00.374Z,2.55
2022-11-20T21:49:28.475Z,2.53
2022-11-20T21:51:56.545Z,2.52
2022-11-20T21:54:24.754Z,2.50
2022-11-20T21:56:53.067Z,2.52
2022-11-20T21:59:23.193Z,2.44
2022-11-20T22:01:51.276Z,2.53
2022-11-20T22:04:20.008Z,2.57
2022-11-20T22:06:48.700Z,2.58
2022-11-20T22:09:16.706Z,2.45
2022-11-20T22:11:44.774Z,2.39
2022-11-20T22:14:22.123Z,2.39
2022-11-20T22:16:52.824Z,2.33
2022-11-20T22:19:21.856Z,2.32
2022-11-20T22:21:50.777Z,2.32
2022-11-20T22:24:19.921Z,2.26
2022-11-20T22:26:48.584Z,2.35
2022-11-20T22:29:17.757Z,2.21
2022-11-20T22:31:45.740Z,2.24
2022-11-20T22:34:15.523Z,2.14
2022-11-20T22:36:43.418Z,2.16
2022-11-20T22:39:11.343Z,2.24
2022-11-20T22:41:39.587Z,2.22
2022-11-20T22:44:09.850Z,2.25
2022-11-20T22:46:40.016Z,2.22
2022-11-20T22:49:09.646Z,2.13
2022-11-20T22:51:39.900Z,2.20
2022-11-20T22:54:09.900Z,2.13
2022-11-20T22:56:38.345Z,2.08
2022-11-20T22:59:06.976Z,2.12
2022-11-20T23:01:36.736Z,2.12
2022-11-20T23:04:05.628Z,2.16
2022-11-20T23:06:34.452Z,2.21
2022-11-20T23:09:04.272Z,2.17
2022-11-20T23:11:32.558Z,2.06
2022-11-20T23:14:01.337Z,2.18
2022-11-20T23:16:32.720Z,2.08
2022-11-20T23:19:01.940Z,2.16
2022-11-20T23:21:30.087Z,2.11
2022-11-20T23:23:59.008Z,2.04
2022-11-20T23:26:29.124Z,2.06
2022-11-20T23:28:58.679Z,2.03
2022-11-20T23:31:28.119Z,2.00
2022-11-20T23:33:56.997Z,1.97
2022-11-20T23:36:25.169Z,2.00
2022-11-20T23:38:53.129Z,2.08
2022-11-20T23:41:21.129Z,2.02
2022-11-20T23:43:50.577Z,2.11
2022-11-20T23:46:18.632Z,2.02
2022-11-20T23:48:46.677Z,1.97
2022-11-20T23:51:14.926Z,1.92
2022-11-20T23:53:43.033Z,1.83
2022-11-20T23:56:14.127Z,1.79
2022-11-20T23:58:42.134Z,1.83
